Time;durP1;ratioP1;P1;durP2;ratioP2;P2;SDS_P1;SDS_P2;PMS_P1;PMS_P2;Temp;Humidity;BMP_temperature;BMP_pressure;BME280_temperature;BME280_humidity;BME280_pressure;Samples;Min_cycle;Max_cycle;Signal;HPM_P1;HPM_P2
2023/03/31 00:00:10;;;;;;;16.80;13.80;;;;;;;8.84;80.56;99353.52;107232;1254;1016365;-72
2023/03/31 00:05:03;;;;;;;16.00;13.90;;;;;;;8.86;80.59;99355.60;107235;1254;1070784;-72
2023/03/31 00:09:56;;;;;;;17.10;13.70;;;;;;;8.92;80.96;99359.41;107236;1253;1019702;-72
2023/03/31 00:15:08;;;;;;;19.20;14.20;;;;;;;8.98;81.42;99362.36;107220;1254;1057836;-72
2023/03/31 00:20:04;;;;;;;17.40;14.90;;;;;;;9.03;81.36;99355.98;107288;1254;1016007;-72
2023/03/31 00:24:57;;;;;;;17.30;14.20;;;;;;;9.07;81.39;99356.32;107220;1254;1066352;-71
2023/03/31 00:29:51;;;;;;;14.30;12.10;;;;;;;9.10;81.31;99356.33;107191;1254;1016362;-72
2023/03/31 00:34:45;;;;;;;16.80;14.00;;;;;;;9.09;81.23;99359.62;107197;1254;1016154;-72
2023/03/31 00:39:39;;;;;;;13.50;11.80;;;;;;;9.12;81.45;99361.70;107204;1254;1016514;-72
2023/03/31 00:44:33;;;;;;;17.00;12.70;;;;;;;9.14;81.44;99360.14;107225;1257;1072582;-72
2023/03/31 00:49:35;;;;;;;14.80;12.20;;;;;;;9.17;81.50;99363.09;107263;1254;1016209;-72
2023/03/31 00:54:29;;;;;;;14.60;13.20;;;;;;;9.20;81.59;99358.76;107232;1257;1069987;-72
2023/03/31 00:59:27;;;;;;;15.00;11.70;;;;;;;9.22;81.62;99356.35;107192;1254;1052054;-72
2023/03/31 01:04:21;;;;;;;14.00;11.80;;;;;;;9.24;81.65;99352.02;107175;1254;1058071;-72
2023/03/31 01:09:15;;;;;;;13.90;11.80;;;;;;;9.25;81.63;99352.03;107218;1257;1016157;-72
2023/03/31 01:14:09;;;;;;;16.10;12.00;;;;;;;9.25;81.69;99348.23;107221;1254;1068628;-72
2023/03/31 01:19:02;;;;;;;16.10;12.40;;;;;;;9.26;81.31;99343.03;107246;1254;1016526;-72
2023/03/31 01:24:36;;;;;;;13.30;11.20;;;;;;;9.27;81.64;99341.65;107185;1254;1016957;-72
2023/03/31 01:30:15;;;;;;;14.60;10.30;;;;;;;9.31;81.84;99339.40;107189;1254;1061143;-72
2023/03/31 01:35:27;;;;;;;12.90;10.50;;;;;;;9.32;81.56;99336.30;106712;1263;1072222;-72
2023/03/31 01:40:38;;;;;;;15.50;10.40;;;;;;;9.33;81.48;99331.27;106737;1260;1064876;-72
2023/03/31 01:45:49;;;;;;;10.50;9.40;;;;;;;9.35;81.62;99333.69;106821;1259;1069136;-72
2023/03/31 01:50:48;;;;;;;10.40;9.20;;;;;;;9.36;81.37;99328.86;106760;1260;1053540;-72
2023/03/31 01:55:51;;;;;;;11.30;10.20;;;;;;;9.36;81.51;99336.29;106717;1261;1057929;-72
2023/03/31 02:01:00;;;;;;;11.00;9.90;;;;;;;9.36;81.32;99338.88;106739;1260;1075300;-71
2023/03/31 02:05:57;;;;;;;13.20;11.90;;;;;;;9.37;81.39;99345.79;106716;1260;1065041;-72
2023/03/31 02:10:52;;;;;;;10.90;9.50;;;;;;;9.37;81.18;99344.06;107013;1254;1070864;-71
2023/03/31 02:15:56;;;;;;;12.10;10.90;;;;;;;9.37;81.20;99345.63;107258;1253;1051515;-72
2023/03/31 02:20:53;;;;;;;12.90;9.70;;;;;;;9.36;81.19;99345.98;107343;1253;1057981;-72
2023/03/31 02:25:53;;;;;;;13.10;11.70;;;;;;;9.36;81.14;99345.97;107384;1253;1073512;-72
2023/03/31 02:30:55;;;;;;;12.30;10.80;;;;;;;9.35;81.14;99343.90;107278;1253;1065970;-71
2023/03/31 02:35:47;;;;;;;10.60;9.50;;;;;;;9.35;81.16;99344.94;107158;1253;1174526;-72
2023/03/31 02:40:40;;;;;;;12.00;10.20;;;;;;;9.34;81.04;99346.14;107172;1253;1016386;-72
2023/03/31 02:45:44;;;;;;;12.50;9.80;;;;;;;9.33;80.88;99347.01;107234;1253;1016435;-72
2023/03/31 02:51:06;;;;;;;10.70;9.60;;;;;;;9.33;81.23;99346.84;107363;1257;1075145;-72
2023/03/31 02:56:38;;;;;;;10.20;8.90;;;;;;;9.32;80.84;99343.04;107217;1256;1066021;-72
2023/03/31 03:01:46;;;;;;;10.20;8.30;;;;;;;9.31;80.87;99341.31;107239;1253;1070784;-72
2023/03/31 03:06:44;;;;;;;11.90;9.70;;;;;;;9.31;80.84;99339.92;107212;1253;1051447;-72
2023/03/31 03:11:52;;;;;;;10.90;9.70;;;;;;;9.30;80.80;99341.64;107299;1257;1058434;-72
2023/03/31 03:16:50;;;;;;;10.30;9.00;;;;;;;9.26;80.73;99341.83;107263;1253;1073676;-71
2023/03/31 03:21:44;;;;;;;11.90;9.40;;;;;;;9.23;80.87;99349.60;107210;1254;1065859;-71
2023/03/31 03:26:37;;;;;;;11.50;9.80;;;;;;;9.20;80.79;99359.97;107257;1253;1016776;-72
2023/03/31 03:31:32;;;;;;;11.50;10.10;;;;;;;9.19;80.86;99366.02;107356;1254;1016427;-72
2023/03/31 03:36:25;;;;;;;12.90;10.20;;;;;;;9.20;80.84;99369.14;107242;1254;1058139;-71
2023/03/31 03:41:18;;;;;;;10.90;9.80;;;;;;;9.20;80.75;99373.11;107284;1253;1016401;-71
2023/03/31 03:46:12;;;;;;;11.30;10.20;;;;;;;9.20;80.73;99375.53;107221;1253;1016575;-71
2023/03/31 03:51:06;;;;;;;11.30;10.00;;;;;;;9.20;80.66;99374.67;107273;1254;1016441;-72
2023/03/31 03:56:00;;;;;;;13.60;10.80;;;;;;;9.21;80.62;99381.59;107483;1253;1016250;-72
2023/03/31 04:00:53;;;;;;;11.30;10.20;;;;;;;9.20;80.77;99385.91;107171;1253;1016204;-72
2023/03/31 04:05:48;;;;;;;11.40;10.20;;;;;;;9.19;80.64;99387.63;107279;1253;1016281;-72
2023/03/31 04:10:49;;;;;;;13.70;10.30;;;;;;;9.17;80.54;99391.27;107292;1253;1066434;-72
2023/03/31 04:15:42;;;;;;;10.90;9.70;;;;;;;9.14;80.44;99391.25;107225;1257;1070415;-71
2023/03/31 04:20:36;;;;;;;11.80;10.10;;;;;;;9.07;80.37;99388.31;107221;1253;1016479;-72
2023/03/31 04:25:29;;;;;;;13.40;10.40;;;;;;;8.98;80.49;99391.74;107236;1253;1016876;-71
2023/03/31 04:30:29;;;;;;;13.70;11.50;;;;;;;8.95;80.38;99392.59;107229;1253;1016555;-72
2023/03/31 04:35:24;;;;;;;12.60;11.30;;;;;;;8.90;80.53;99390.00;107299;1253;1065636;-72
2023/03/31 04:40:17;;;;;;;13.60;11.50;;;;;;;8.81;80.25;99383.40;107201;1254;1016467;-72
2023/03/31 04:45:13;;;;;;;12.60;10.10;;;;;;;8.72;80.52;99386.83;107123;1253;1016176;-72
2023/03/31 04:50:07;;;;;;;11.90;10.60;;;;;;;8.69;80.24;99383.38;107235;1254;1058251;-72
2023/03/31 04:55:06;;;;;;;14.20;10.90;;;;;;;8.75;80.26;99377.70;107193;1253;1073286;-72
2023/03/31 04:59:59;;;;;;;13.30;10.00;;;;;;;8.75;80.19;99370.45;108185;1253;1016110;-72
2023/03/31 05:04:52;;;;;;;11.40;9.90;;;;;;;8.72;80.22;99371.98;107231;1254;1017449;-72
2023/03/31 05:09:45;;;;;;;11.30;10.20;;;;;;;8.68;80.05;99372.48;107192;1253;1016230;-72
2023/03/31 05:14:39;;;;;;;11.90;9.70;;;;;;;8.66;79.85;99367.65;107176;1253;1016139;-72
2023/03/31 05:19:32;;;;;;;12.90;10.00;;;;;;;8.65;79.82;99373.70;107053;1256;1016318;-72
2023/03/31 05:24:27;;;;;;;9.80;8.60;;;;;;;8.75;79.96;99371.46;107194;1254;1016603;-72
2023/03/31 05:29:20;;;;;;;11.30;10.10;;;;;;;9.08;80.02;99377.93;107189;1253;1071630;-72
2023/03/31 05:34:15;;;;;;;12.90;10.70;;;;;;;9.26;79.68;99371.91;107163;1257;1016234;-72
2023/03/31 05:39:08;;;;;;;14.10;11.40;;;;;;;9.40;79.62;99364.64;107192;1253;1017913;-72
2023/03/31 05:44:01;;;;;;;12.20;10.60;;;;;;;9.54;79.48;99359.11;107249;1253;1016474;-72
2023/03/31 05:48:55;;;;;;;16.20;11.50;;;;;;;9.66;79.20;99359.80;107218;1256;1016342;-72
2023/03/31 05:53:48;;;;;;;11.20;9.70;;;;;;;9.77;79.00;99354.94;107190;1253;1016186;-72
2023/03/31 05:58:42;;;;;;;12.50;10.20;;;;;;;9.87;78.82;99354.39;107174;1253;1016840;-72
2023/03/31 06:03:36;;;;;;;13.00;11.60;;;;;;;9.94;78.97;99354.02;107229;1253;1016305;-72
2023/03/31 06:08:29;;;;;;;13.60;12.10;;;;;;;10.06;78.65;99350.20;107215;1253;1073248;-72
2023/03/31 06:13:23;;;;;;;13.30;12.00;;;;;;;10.23;78.51;99351.70;107286;1257;1016340;-72
2023/03/31 06:18:16;;;;;;;14.60;11.50;;;;;;;10.33;78.24;99344.77;107200;1253;1016260;-71
2023/03/31 06:23:11;;;;;;;13.60;10.10;;;;;;;10.37;78.11;99343.89;107204;1257;1016447;-72
2023/03/31 06:28:05;;;;;;;15.00;11.90;;;;;;;10.40;78.07;99350.81;107133;1257;1058709;-72
2023/03/31 06:32:58;;;;;;;13.10;11.60;;;;;;;10.47;77.67;99352.00;107141;1257;1015920;-72
2023/03/31 06:37:51;;;;;;;12.90;10.50;;;;;;;10.55;77.52;99350.57;107195;1253;1016489;-71
2023/03/31 06:42:44;;;;;;;14.50;11.50;;;;;;;10.61;77.58;99342.57;107175;1253;1016199;-72
2023/03/31 06:47:37;;;;;;;12.90;11.10;;;;;;;10.69;77.25;99343.91;107076;1255;1016029;-72
2023/03/31 06:52:32;;;;;;;11.60;10.50;;;;;;;10.81;77.08;99339.34;107173;1253;1016516;-72
2023/03/31 06:57:24;;;;;;;12.30;10.90;;;;;;;11.28;76.43;99338.14;107192;1253;1016387;-72
2023/03/31 07:02:17;;;;;;;10.90;9.90;;;;;;;11.85;75.39;99339.38;107200;1253;1016329;-72
2023/03/31 07:07:10;;;;;;;12.20;11.00;;;;;;;12.13;74.95;99333.18;107225;1252;1018533;-72
2023/03/31 07:12:04;;;;;;;10.30;9.20;;;;;;;12.20;74.94;99327.72;107205;1253;1016035;-74
2023/03/31 07:16:58;;;;;;;14.30;11.40;;;;;;;12.18;74.31;99332.27;107303;1253;1017274;-72
2023/03/31 07:21:51;;;;;;;10.60;9.60;;;;;;;12.47;73.80;99327.75;107315;1253;1015979;-73
2023/03/31 07:26:44;;;;;;;11.20;10.20;;;;;;;12.75;73.12;99332.07;107285;1253;1017315;-73
2023/03/31 07:31:37;;;;;;;11.00;9.90;;;;;;;12.90;72.94;99337.23;107198;1253;1016289;-73
2023/03/31 07:36:31;;;;;;;12.30;11.00;;;;;;;13.05;72.31;99328.14;107230;1254;1017706;-72
2023/03/31 07:41:25;;;;;;;13.20;11.50;;;;;;;13.28;71.84;99324.84;83104;1256;2016323;-73
2023/03/31 07:46:27;;;;;;;11.50;10.20;;;;;;;14.97;69.16;99316.96;83959;1253;2015654;-72
2023/03/31 07:51:22;;;;;;;10.50;9.40;;;;;;;19.02;64.09;99308.88;80031;1253;2073182;-72
2023/03/31 07:56:16;;;;;;;11.70;10.20;;;;;;;19.48;62.06;99303.36;80220;1253;2016356;-73
2023/03/31 08:01:11;;;;;;;11.80;10.60;;;;;;;18.11;61.99;99306.35;81516;1253;2067818;-72
2023/03/31 08:06:04;;;;;;;10.80;9.80;;;;;;;17.10;63.80;99302.10;81720;1253;2058853;-73
2023/03/31 08:10:57;;;;;;;14.20;11.70;;;;;;;16.52;64.24;99299.15;81020;1253;2070579;-72
2023/03/31 08:15:52;;;;;;;12.90;11.70;;;;;;;16.31;63.93;99290.84;80310;1253;2018009;-72
2023/03/31 08:20:48;;;;;;;11.70;10.60;;;;;;;16.26;63.67;99279.64;79510;1253;2015590;-71
2023/03/31 08:25:41;;;;;;;10.80;9.80;;;;;;;16.02;63.81;99281.71;77732;1253;2070901;-71
2023/03/31 08:30:36;;;;;;;11.20;10.10;;;;;;;15.69;63.94;99274.72;79966;1253;2015886;-73
2023/03/31 08:35:29;;;;;;;11.30;10.20;;;;;;;15.42;63.96;99268.98;79221;1253;2064546;-74
2023/03/31 08:40:25;;;;;;;11.00;9.80;;;;;;;14.95;63.94;99270.48;81440;1253;2072691;-72
2023/03/31 08:45:25;;;;;;;12.00;10.60;;;;;;;14.63;64.61;99272.96;79473;1253;2070161;-72
2023/03/31 08:50:27;;;;;;;12.00;10.80;;;;;;;14.37;64.90;99269.52;88582;1254;2073012;-72
2023/03/31 08:55:28;;;;;;;11.30;10.20;;;;;;;14.01;65.41;99271.48;107224;1253;1058621;-72
2023/03/31 09:00:21;;;;;;;11.80;9.90;;;;;;;13.70;66.07;99268.07;107536;1253;1073235;-72
2023/03/31 09:05:13;;;;;;;9.60;8.60;;;;;;;13.81;66.00;99261.94;107253;1253;1016678;-72
2023/03/31 09:10:12;;;;;;;9.40;8.10;;;;;;;14.06;65.60;99257.96;107281;1254;1016328;-73
2023/03/31 09:15:24;;;;;;;7.80;6.30;;;;;;;14.42;65.06;99247.80;107249;1253;1053906;-73
2023/03/31 09:20:17;;;;;;;10.40;7.00;;;;;;;14.87;64.11;99243.11;107240;1253;1058510;-74
2023/03/31 09:25:19;;;;;;;9.70;7.10;;;;;;;15.35;63.92;99238.60;107350;1253;1016163;-72
2023/03/31 09:30:15;;;;;;;9.00;8.10;;;;;;;15.96;63.64;99230.84;107291;1254;1064834;-71
2023/03/31 09:35:21;;;;;;;8.10;7.20;;;;;;;16.29;62.25;99227.25;107212;1253;1070488;-74
2023/03/31 09:40:27;;;;;;;7.20;6.60;;;;;;;16.78;61.76;99222.61;107182;1254;1051125;-74
2023/03/31 09:45:20;;;;;;;7.70;6.60;;;;;;;17.23;61.16;99222.38;107226;1256;1058079;-73
2023/03/31 09:50:15;;;;;;;7.20;6.50;;;;;;;17.18;60.76;99219.04;107272;1253;1016411;-74
2023/03/31 09:55:24;;;;;;;6.80;5.30;;;;;;;16.99;60.15;99214.77;107183;1257;1065163;-74
2023/03/31 10:00:31;;;;;;;6.10;5.00;;;;;;;16.41;60.69;99209.23;107248;1253;1070573;-73
2023/03/31 10:05:29;;;;;;;8.40;5.70;;;;;;;16.15;61.06;99208.81;107255;1253;1016104;-73
2023/03/31 10:10:31;;;;;;;7.20;5.30;;;;;;;16.32;60.64;99204.45;107250;1254;1058157;-72
2023/03/31 10:15:28;;;;;;;8.30;5.10;;;;;;;16.98;59.91;99191.15;107240;1253;1073183;-73
2023/03/31 10:20:32;;;;;;;9.80;4.70;;;;;;;17.97;58.57;99182.42;107240;1257;1064909;-74
2023/03/31 10:25:28;;;;;;;7.60;4.40;;;;;;;17.82;58.50;99184.39;107279;1253;1073351;-74
2023/03/31 10:30:24;;;;;;;6.80;5.50;;;;;;;18.29;57.90;99169.63;107230;1254;1051119;-73
2023/03/31 10:35:33;;;;;;;5.10;4.50;;;;;;;18.63;57.55;99164.58;107230;1253;1061205;-73
2023/03/31 10:40:29;;;;;;;5.80;3.60;;;;;;;18.47;56.64;99167.33;107277;1254;1073562;-72
2023/03/31 10:45:26;;;;;;;5.30;3.40;;;;;;;18.92;56.00;99161.13;107322;1253;1065246;-73
2023/03/31 10:50:33;;;;;;;6.10;4.20;;;;;;;18.85;55.69;99156.15;107284;1253;1071019;-72
2023/03/31 10:55:36;;;;;;;6.30;4.60;;;;;;;18.20;56.33;99153.84;107276;1254;1050789;-72
2023/03/31 11:00:36;;;;;;;7.10;4.90;;;;;;;17.83;57.37;99146.84;107301;1253;1057789;-72
2023/03/31 11:05:43;;;;;;;6.30;3.40;;;;;;;18.18;56.93;99147.78;107236;1253;1072423;-73
2023/03/31 11:10:58;;;;;;;6.50;2.90;;;;;;;18.01;56.12;99137.41;107274;1253;1065452;-72
2023/03/31 11:16:02;;;;;;;5.70;3.30;;;;;;;18.02;56.66;99131.42;107260;1253;1070709;-72
2023/03/31 11:21:25;;;;;;;5.90;3.00;;;;;;;18.21;56.31;99128.58;107324;1253;1051097;-72
2023/03/31 11:26:45;;;;;;;6.40;2.90;;;;;;;18.30;55.53;99129.25;107280;1255;1062084;-72
2023/03/31 11:31:41;;;;;;;5.10;3.20;;;;;;;18.37;54.97;99119.88;107259;1253;1072117;-73
2023/03/31 11:36:51;;;;;;;5.30;3.20;;;;;;;18.43;54.44;99109.63;107250;1253;1067502;-74
2023/03/31 11:41:50;;;;;;;5.20;2.70;;;;;;;18.91;54.36;99108.34;107183;1253;1070637;-73
2023/03/31 11:46:48;;;;;;;6.30;2.80;;;;;;;19.31;53.66;99095.21;107196;1254;1051241;-74
2023/03/31 11:51:53;;;;;;;6.20;2.80;;;;;;;19.14;53.70;99094.91;107184;1253;1061520;-72
2023/03/31 11:56:46;;;;;;;6.50;2.70;;;;;;;19.65;53.30;99080.14;107254;1253;1075528;-73
2023/03/31 12:01:52;;;;;;;6.00;2.70;;;;;;;19.47;52.64;99078.49;107159;1257;1016457;-73
2023/03/31 12:06:48;;;;;;;5.80;2.90;;;;;;;19.37;52.54;99068.92;107224;1257;1071248;-72
2023/03/31 12:12:05;;;;;;;6.60;2.30;;;;;;;19.62;52.69;99063.23;107344;1256;1052333;-74
2023/03/31 12:17:08;;;;;;;5.80;2.20;;;;;;;19.12;52.30;99061.27;107156;1253;1061104;-73
2023/03/31 12:22:11;;;;;;;3.30;2.30;;;;;;;18.41;52.29;99060.89;107202;1253;1074608;-73
2023/03/31 12:27:40;;;;;;;5.60;2.50;;;;;;;17.98;52.47;99056.38;107504;1253;1065188;-73
2023/03/31 12:32:38;;;;;;;6.20;2.70;;;;;;;17.84;52.96;99049.35;106793;1260;1070888;-72
2023/03/31 12:37:53;;;;;;;5.90;3.20;;;;;;;17.99;53.37;99039.14;106703;1259;1050715;-73
2023/03/31 12:42:46;;;;;;;5.40;2.70;;;;;;;18.02;52.81;99036.59;106682;1259;1060638;-72
2023/03/31 12:47:45;;;;;;;5.10;3.10;;;;;;;18.20;52.65;99024.07;106775;1262;1016343;-72
2023/03/31 12:53:10;;;;;;;6.30;2.50;;;;;;;18.79;52.78;99013.16;106684;1260;1064929;-73
2023/03/31 12:58:25;;;;;;;5.50;2.20;;;;;;;18.73;52.01;99014.84;106552;1259;1070884;-72
2023/03/31 13:03:45;;;;;;;6.50;2.80;;;;;;;18.47;51.44;99016.30;106632;1259;1050835;-72
2023/03/31 13:08:58;;;;;;;6.70;2.60;;;;;;;17.92;52.06;99007.66;107236;1253;1061272;-74
2023/03/31 13:14:02;;;;;;;5.20;3.10;;;;;;;17.47;52.86;98999.30;107243;1253;1072341;-72
2023/03/31 13:18:57;;;;;;;4.00;2.40;;;;;;;17.16;53.08;98988.52;107224;1253;1064075;-72
2023/03/31 13:23:51;;;;;;;5.30;2.40;;;;;;;17.00;53.60;98979.67;107240;1253;1016238;-71
2023/03/31 13:28:44;;;;;;;5.00;2.40;;;;;;;16.95;53.68;98975.14;107201;1253;1015872;-72
2023/03/31 13:33:55;;;;;;;2.80;1.70;;;;;;;16.83;53.31;98972.23;107274;1254;1018799;-71
2023/03/31 13:39:26;;;;;;;6.20;2.70;;;;;;;16.52;53.55;98963.70;107311;1253;1076791;-72
2023/03/31 13:44:41;;;;;;;3.30;2.00;;;;;;;16.14;53.72;98963.59;107263;1253;1064107;-71
2023/03/31 13:49:58;;;;;;;3.30;1.70;;;;;;;15.80;54.18;98958.95;107294;1255;1071244;-71
2023/03/31 13:55:00;;;;;;;4.30;2.20;;;;;;;15.58;54.48;98961.73;107291;1253;1051302;-72
2023/03/31 14:00:13;;;;;;;4.80;1.90;;;;;;;15.47;54.74;98957.88;107264;1254;1058178;-72
2023/03/31 14:05:32;;;;;;;3.50;2.20;;;;;;;15.73;55.20;98950.24;107299;1253;1072561;-71
2023/03/31 14:10:36;;;;;;;4.80;2.60;;;;;;;16.44;54.60;98937.23;107688;1253;1064322;-71
2023/03/31 14:15:31;;;;;;;3.00;2.30;;;;;;;16.65;54.05;98923.55;107301;1253;1073657;-73
2023/03/31 14:20:51;;;;;;;3.20;2.00;;;;;;;16.48;54.03;98924.49;107277;1253;1017502;-74
2023/03/31 14:26:15;;;;;;;2.50;2.20;;;;;;;16.30;54.24;98919.52;107270;1259;1058261;-72
2023/03/31 14:31:33;;;;;;;5.10;2.40;;;;;;;16.64;54.52;98906.63;107232;1254;1073385;-73
2023/03/31 14:37:00;;;;;;;3.10;1.90;;;;;;;17.33;53.71;98897.20;107184;1253;1065470;-73
2023/03/31 14:41:55;;;;;;;5.20;2.40;;;;;;;17.12;53.60;98899.41;107228;1253;1070975;-73
2023/03/31 14:46:48;;;;;;;7.40;2.90;;;;;;;16.67;53.56;98899.66;107111;1257;1051480;-73
2023/03/31 14:51:44;;;;;;;4.90;2.30;;;;;;;16.26;54.02;98898.70;107107;1256;1016392;-73
2023/03/31 14:56:40;;;;;;;4.90;2.40;;;;;;;15.89;54.39;98893.85;107225;1258;1072377;-73
2023/03/31 15:01:36;;;;;;;4.50;2.80;;;;;;;15.58;54.81;98895.35;107268;1254;1065039;-74
2023/03/31 15:06:31;;;;;;;4.70;2.60;;;;;;;15.26;55.64;98891.14;107193;1254;1070824;-75
2023/03/31 15:11:27;;;;;;;8.30;3.60;;;;;;;14.87;57.95;98894.41;107412;1254;1050481;-74
2023/03/31 15:16:40;;;;;;;10.80;3.70;;;;;;;14.49;60.11;98885.72;107305;1257;1060698;-74
2023/03/31 15:21:37;;;;;;;8.80;3.60;;;;;;;14.11;61.75;98878.73;107182;1253;1073662;-73
2023/03/31 15:26:35;;;;;;;6.80;3.80;;;;;;;13.76;63.12;98879.98;107260;1257;1068323;-73
2023/03/31 15:31:33;;;;;;;8.90;6.40;;;;;;;13.58;64.43;98891.75;107138;1257;1069582;-73
2023/03/31 15:36:30;;;;;;;43.60;39.70;;;;;;;13.49;65.29;98887.63;107338;1254;1016743;-74
2023/03/31 15:41:23;;;;;;;36.40;33.10;;;;;;;13.35;65.66;98887.23;107231;1254;1058953;-74
2023/03/31 15:46:50;;;;;;;9.90;5.20;;;;;;;13.19;66.46;98919.61;107253;1254;1016645;-73
2023/03/31 15:51:46;;;;;;;2.00;1.60;;;;;;;12.82;65.40;98915.70;107224;1257;1064863;-73
2023/03/31 15:56:45;;;;;;;13.80;2.10;;;;;;;12.46;65.33;98911.91;107179;1256;1072613;-73
2023/03/31 16:01:44;;;;;;;2.10;1.90;;;;;;;12.22;65.85;98903.00;107204;1254;1051135;-73
2023/03/31 16:06:58;;;;;;;1.70;1.40;;;;;;;12.02;66.47;98890.50;107261;1255;1058029;-75
2023/03/31 16:11:55;;;;;;;2.30;1.60;;;;;;;11.77;67.06;98874.41;107208;1254;1075808;-74
2023/03/31 16:16:54;;;;;;;3.30;1.80;;;;;;;11.57;67.76;98860.86;107234;1259;1065057;-74
2023/03/31 16:21:51;;;;;;;3.00;2.20;;;;;;;11.44;68.44;98840.08;107304;1258;1070611;-73
2023/03/31 16:26:44;;;;;;;2.70;1.80;;;;;;;11.38;68.88;98832.55;107294;1256;1060413;-73
2023/03/31 16:31:40;;;;;;;2.80;2.00;;;;;;;11.36;69.24;98846.45;107263;1254;1016483;-73
2023/03/31 16:36:33;;;;;;;3.20;2.80;;;;;;;11.27;69.38;98839.84;107291;1255;1072359;-73
2023/03/31 16:41:28;;;;;;;4.50;3.40;;;;;;;11.20;69.84;98836.67;107210;1256;1016215;-73
2023/03/31 16:46:23;;;;;;;3.70;2.80;;;;;;;11.15;70.27;98837.95;107288;1253;1070617;-73
2023/03/31 16:51:16;;;;;;;3.40;3.10;;;;;;;11.08;70.49;98834.77;107269;1256;1049538;-73
2023/03/31 16:56:11;;;;;;;3.70;3.10;;;;;;;11.00;70.84;98827.08;107255;1257;1016003;-74
2023/03/31 17:01:06;;;;;;;4.90;3.20;;;;;;;10.93;71.18;98828.57;107268;1256;1072423;-74
2023/03/31 17:06:05;;;;;;;7.20;4.40;;;;;;;10.90;71.56;98824.45;107262;1254;1065265;-73
2023/03/31 17:11:05;;;;;;;7.10;5.30;;;;;;;10.87;71.65;98819.12;107177;1255;1070927;-73
2023/03/31 17:15:59;;;;;;;6.20;5.30;;;;;;;10.84;71.94;98811.55;107429;1254;1051730;-74
2023/03/31 17:21:12;;;;;;;5.80;4.60;;;;;;;10.77;71.94;98805.74;107233;1252;1058283;-74
2023/03/31 17:26:08;;;;;;;6.90;5.70;;;;;;;10.72;72.16;98797.67;107252;1257;1073736;-74
2023/03/31 17:31:02;;;;;;;5.60;4.90;;;;;;;10.67;72.34;98797.40;107287;1254;1064906;-74
2023/03/31 17:35:58;;;;;;;6.60;5.00;;;;;;;10.60;72.54;98797.14;107211;1257;1016566;-74
2023/03/31 17:40:51;;;;;;;7.70;5.30;;;;;;;10.59;72.73;98795.60;107170;1254;1051206;-74
2023/03/31 17:45:44;;;;;;;7.70;5.20;;;;;;;10.53;72.89;98792.40;107301;1254;1016056;-73
2023/03/31 17:50:37;;;;;;;5.90;5.00;;;;;;;10.46;73.09;98791.43;107221;1254;1016491;-74
2023/03/31 17:55:30;;;;;;;5.70;4.80;;;;;;;10.42;73.33;98806.92;107284;1254;1019529;-73
2023/03/31 18:00:23;;;;;;;15.60;11.90;;;;;;;10.39;73.51;98844.19;107306;1254;1016119;-73
2023/03/31 18:05:16;;;;;;;17.10;14.00;;;;;;;10.35;73.85;98842.86;107278;1257;1016695;-73
2023/03/31 18:10:10;;;;;;;20.50;14.40;;;;;;;10.31;74.06;98840.29;107275;1254;1016388;-73
2023/03/31 18:15:05;;;;;;;15.40;12.70;;;;;;;10.32;74.33;98837.68;107291;1253;1016655;-73
2023/03/31 18:19:58;;;;;;;15.40;12.80;;;;;;;10.31;74.53;98833.53;107272;1254;1065944;-73
2023/03/31 18:24:51;;;;;;;15.00;12.40;;;;;;;10.29;74.71;98825.39;107251;1257;1016350;-74
2023/03/31 18:29:44;;;;;;;13.50;12.10;;;;;;;10.29;74.79;98824.02;107221;1253;1016437;-73
2023/03/31 18:34:37;;;;;;;16.80;11.40;;;;;;;10.28;75.01;98822.98;107221;1252;1016521;-74
2023/03/31 18:39:30;;;;;;;12.70;10.70;;;;;;;10.26;74.87;98819.36;107211;1256;1016077;-73
2023/03/31 18:44:23;;;;;;;13.50;10.90;;;;;;;10.24;75.19;98814.55;107283;1254;1016387;-73
2023/03/31 18:49:18;;;;;;;14.70;11.50;;;;;;;10.23;75.31;98815.60;107157;1252;1016534;-73
2023/03/31 18:54:11;;;;;;;12.70;10.70;;;;;;;10.21;75.38;98807.84;107193;1254;1050813;-73
2023/03/31 18:59:04;;;;;;;11.90;10.60;;;;;;;10.17;75.45;98802.86;107225;1254;1016310;-73
2023/03/31 19:03:57;;;;;;;14.10;11.30;;;;;;;10.14;75.62;98797.36;107187;1254;1016140;-73
2023/03/31 19:08:50;;;;;;;18.10;13.20;;;;;;;10.13;75.78;98788.02;107147;1254;1016364;-73
2023/03/31 19:13:44;;;;;;;14.80;12.90;;;;;;;10.14;75.92;98782.83;107094;1254;1016502;-73
2023/03/31 19:18:37;;;;;;;18.60;13.60;;;;;;;10.10;75.93;98777.16;107111;1257;1018358;-74
2023/03/31 19:23:31;;;;;;;20.30;15.30;;;;;;;10.08;76.18;98775.95;107049;1254;1016030;-74
2023/03/31 19:28:25;;;;;;;18.80;15.00;;;;;;;10.06;76.15;98770.80;107081;1254;1017051;-73
2023/03/31 19:33:20;;;;;;;16.10;13.60;;;;;;;10.04;76.34;98767.70;107111;1254;1020822;-73
2023/03/31 19:38:14;;;;;;;15.60;13.50;;;;;;;10.03;76.42;98757.16;107159;1257;1073368;-73
2023/03/31 19:43:19;;;;;;;15.50;13.90;;;;;;;10.04;76.81;98752.65;107355;1254;1016410;-73
2023/03/31 19:48:12;;;;;;;15.20;12.90;;;;;;;10.05;76.89;98743.80;107169;1257;1058741;-73
2023/03/31 19:53:05;;;;;;;13.80;11.90;;;;;;;10.04;76.93;98742.79;107162;1253;1016502;-73
2023/03/31 19:57:58;;;;;;;16.70;13.00;;;;;;;10.00;76.99;98732.44;107053;1254;1016511;-73
2023/03/31 20:02:51;;;;;;;16.20;14.40;;;;;;;9.99;77.26;98722.42;107091;1254;1016218;-73
2023/03/31 20:07:44;;;;;;;18.60;15.20;;;;;;;9.96;77.23;98714.67;107022;1254;1016627;-73
2023/03/31 20:12:38;;;;;;;16.50;13.60;;;;;;;9.91;77.38;98707.45;107212;1253;1018242;-74
2023/03/31 20:17:30;;;;;;;15.40;13.80;;;;;;;9.84;77.35;98715.51;107124;1254;1016801;-73
2023/03/31 20:22:25;;;;;;;19.00;15.70;;;;;;;9.81;77.57;98718.83;107070;1254;1017779;-74
2023/03/31 20:27:18;;;;;;;19.00;14.90;;;;;;;9.79;77.56;98720.59;107145;1254;1071075;-74
2023/03/31 20:32:11;;;;;;;21.20;16.20;;;;;;;9.78;77.89;98714.17;107172;1253;1016746;-73
2023/03/31 20:37:04;;;;;;;16.50;14.70;;;;;;;9.79;78.06;98712.45;107193;1253;1017482;-73
2023/03/31 20:42:05;;;;;;;20.50;14.90;;;;;;;9.77;77.89;98706.06;107130;1254;1016385;-73
2023/03/31 20:46:59;;;;;;;16.60;14.80;;;;;;;9.74;77.98;98700.93;107504;1253;1065554;-73
2023/03/31 20:51:55;;;;;;;16.70;13.60;;;;;;;9.71;78.15;98698.69;107159;1254;1070552;-73
2023/03/31 20:56:49;;;;;;;15.30;12.80;;;;;;;9.69;78.38;98687.31;107234;1254;1018532;-73
2023/03/31 21:01:44;;;;;;;16.50;14.00;;;;;;;9.67;78.54;98682.49;107184;1253;1015899;-74
2023/03/31 21:06:43;;;;;;;16.10;14.40;;;;;;;9.64;78.47;98677.84;107181;1254;1073730;-73
2023/03/31 21:11:35;;;;;;;14.00;12.30;;;;;;;9.64;78.66;98674.39;107228;1257;1065030;-73
2023/03/31 21:16:28;;;;;;;16.60;12.10;;;;;;;9.63;78.80;98676.30;107177;1253;1018356;-74
2023/03/31 21:21:23;;;;;;;14.10;11.90;;;;;;;9.64;79.12;98673.35;107185;1253;1016375;-74
2023/03/31 21:26:16;;;;;;;13.20;11.80;;;;;;;9.66;79.44;98673.52;107276;1254;1058161;-74
2023/03/31 21:31:21;;;;;;;15.30;11.80;;;;;;;9.67;79.72;98673.31;107201;1253;1018230;-74
2023/03/31 21:36:17;;;;;;;17.40;11.60;;;;;;;9.70;79.97;98672.06;107238;1253;1064915;-73
2023/03/31 21:41:21;;;;;;;15.90;11.80;;;;;;;9.73;79.93;98672.20;107190;1253;1070516;-74
2023/03/31 21:46:17;;;;;;;15.20;11.40;;;;;;;9.74;80.28;98664.76;107152;1253;1051083;-74
2023/03/31 21:51:12;;;;;;;12.40;10.40;;;;;;;9.76;80.32;98656.95;107203;1253;1058758;-74
2023/03/31 21:56:05;;;;;;;10.70;7.90;;;;;;;9.75;80.43;98658.35;107165;1253;1015776;-74
2023/03/31 22:01:04;;;;;;;14.30;9.40;;;;;;;9.73;80.51;98656.64;107287;1253;1016059;-74
2023/03/31 22:05:58;;;;;;;14.00;11.80;;;;;;;9.73;80.66;98656.11;107422;1252;1070896;-74
2023/03/31 22:10:52;;;;;;;15.70;11.10;;;;;;;9.75;80.76;98647.63;107190;1253;1017298;-74
2023/03/31 22:15:45;;;;;;;14.00;11.20;;;;;;;9.75;80.86;98645.71;107261;1253;1016394;-75
2023/03/31 22:20:39;;;;;;;15.20;11.00;;;;;;;9.72;80.95;98643.85;107206;1253;1016311;-74
2023/03/31 22:25:33;;;;;;;14.00;10.80;;;;;;;9.70;81.08;98633.84;107234;1254;1018246;-73